Time;durP1;ratioP1;P1;durP2;ratioP2;P2;SDS_P1;SDS_P2;PMS_P1;PMS_P2;Temp;Humidity;BMP_temperature;BMP_pressure;BME280_temperature;BME280_humidity;BME280_pressure;Samples;Min_cycle;Max_cycle;Signal;HPM_P1;HPM_P2
2022/05/14 00:01:56;;;;;;;26.15;5.20;;;;;;;12.20;100.00;101992.63;5070404;28;20098;-28
2022/05/14 00:04:24;;;;;;;26.70;4.75;;;;;;;12.21;100.00;101989.53;5071024;28;20037;-29
2022/05/14 00:06:54;;;;;;;28.45;5.57;;;;;;;12.22;100.00;101990.38;5071257;28;20049;-29
2022/05/14 00:09:22;;;;;;;33.72;5.22;;;;;;;12.19;100.00;101985.38;5070589;28;20048;-28
2022/05/14 00:14:35;;;;;;;25.73;4.88;;;;;;;12.17;100.00;101993.22;5071200;28;20049;-27
2022/05/14 00:17:04;;;;;;;22.05;4.43;;;;;;;12.18;100.00;101992.09;5070569;28;20054;-33
2022/05/14 00:19:32;;;;;;;29.20;5.22;;;;;;;12.19;100.00;101985.38;5070953;28;20048;-30
2022/05/14 00:22:01;;;;;;;22.83;4.40;;;;;;;12.18;100.00;101978.94;5071109;28;20044;-29
2022/05/14 00:24:29;;;;;;;21.40;4.32;;;;;;;12.17;100.00;101988.44;5070115;28;20055;-28
2022/05/14 00:26:57;;;;;;;25.58;4.72;;;;;;;12.17;100.00;101984.81;5071001;28;20044;-30
2022/05/14 00:29:27;;;;;;;22.10;4.65;;;;;;;12.16;100.00;101991.53;5070446;28;20056;-29
2022/05/14 00:31:55;;;;;;;25.42;5.03;;;;;;;12.18;100.00;101975.31;5069859;28;20048;-28
2022/05/14 00:34:22;;;;;;;25.35;5.00;;;;;;;12.18;100.00;101966.91;5070773;28;20060;-28
2022/05/14 00:36:50;;;;;;;19.27;4.35;;;;;;;12.19;100.00;101965.78;5070312;28;20056;-30
2022/05/14 00:39:19;;;;;;;27.92;4.60;;;;;;;12.21;100.00;101964.34;5069656;28;20071;-28
2022/05/14 00:41:48;;;;;;;23.60;4.75;;;;;;;12.21;100.00;101972.75;5069679;28;20054;-29
2022/05/14 00:44:16;;;;;;;24.60;5.30;;;;;;;12.22;100.00;101973.59;5070261;28;20045;-29
2022/05/14 00:46:48;;;;;;;27.77;4.90;;;;;;;12.24;100.00;101976.94;5070892;28;20380;-28
2022/05/14 00:49:20;;;;;;;25.48;5.00;;;;;;;12.23;100.00;101969.66;5069615;28;20052;-28
2022/05/14 00:51:47;;;;;;;16.92;3.25;;;;;;;12.22;100.00;101970.78;5068728;28;20053;-28
2022/05/14 00:54:18;;;;;;;18.55;3.78;;;;;;;12.21;100.00;101969.94;5069398;28;20473;-28
2022/05/14 00:56:51;;;;;;;22.52;4.53;;;;;;;12.22;100.00;101968.00;5069751;28;20072;-28
2022/05/14 00:59:21;;;;;;;14.90;3.10;;;;;;;12.20;100.00;101970.22;5070288;28;20032;-28
2022/05/14 01:01:49;;;;;;;16.33;3.85;;;;;;;12.18;100.00;101966.91;5069356;28;20150;-29
2022/05/14 01:04:19;;;;;;;16.38;4.13;;;;;;;12.16;100.00;101970.00;5069294;28;20102;-28
2022/05/14 01:06:53;;;;;;;18.42;3.22;;;;;;;12.15;100.00;101973.91;5069706;28;20058;-28
2022/05/14 01:09:21;;;;;;;18.38;3.70;;;;;;;12.15;100.00;101984.25;5070823;28;20208;-27
2022/05/14 01:11:51;;;;;;;17.88;3.85;;;;;;;12.14;100.00;101985.38;5068525;28;20059;-28
2022/05/14 01:14:19;;;;;;;18.40;3.30;;;;;;;12.12;100.00;101984.81;5069606;28;20055;-28
2022/05/14 01:16:48;;;;;;;14.90;3.35;;;;;;;12.10;100.00;101989.84;5069276;28;20049;-28
2022/05/14 01:19:16;;;;;;;28.02;4.97;;;;;;;12.08;100.00;101984.53;5068165;28;20521;-29
2022/05/14 01:22:02;;;;;;;20.15;4.13;;;;;;;12.08;100.00;101985.38;5069406;28;20054;-29
2022/05/14 01:27:27;;;;;;;17.48;3.88;;;;;;;12.02;100.00;102006.06;5068180;28;20567;-29
2022/05/14 01:29:55;;;;;;;17.88;3.38;;;;;;;12.02;100.00;102008.88;5069063;28;20072;-31
2022/05/14 01:32:23;;;;;;;16.10;3.30;;;;;;;12.03;100.00;102010.56;5069235;28;20071;-33
2022/05/14 01:34:51;;;;;;;20.02;3.78;;;;;;;12.03;100.00;102010.56;5069692;28;20059;-32
2022/05/14 01:37:20;;;;;;;13.20;3.35;;;;;;;12.04;100.00;102011.41;5069270;28;20048;-32
2022/05/14 01:39:49;;;;;;;15.80;4.07;;;;;;;12.03;100.00;102010.56;5067959;28;20070;-28
2022/05/14 01:42:16;;;;;;;11.65;2.80;;;;;;;12.03;100.00;102004.97;5068923;28;20080;-29
2022/05/14 01:44:46;;;;;;;10.73;3.10;;;;;;;12.02;100.00;102008.03;5069161;28;20402;-29
2022/05/14 01:47:14;;;;;;;22.67;4.07;;;;;;;11.99;100.00;102012.22;5071321;28;20086;-31
2022/05/14 01:49:42;;;;;;;23.70;4.13;;;;;;;11.98;100.00;102018.13;5072768;28;20044;-29
2022/05/14 01:52:10;;;;;;;14.43;3.03;;;;;;;11.98;100.00;102018.13;5072475;28;20041;-29
2022/05/14 01:54:38;;;;;;;13.82;3.08;;;;;;;11.94;100.00;102017.84;5071430;28;20048;-31
2022/05/14 01:57:06;;;;;;;10.10;2.97;;;;;;;11.92;100.00;102017.28;5074054;28;20036;-32
2022/05/14 01:59:35;;;;;;;12.27;3.08;;;;;;;11.90;100.00;102021.47;5089591;28;20478;-29
2022/05/14 02:02:09;;;;;;;11.23;2.85;;;;;;;11.88;100.00;102010.56;5070374;28;20408;-29
2022/05/14 02:04:38;;;;;;;13.02;3.38;;;;;;;11.87;100.00;102013.66;5070469;28;20148;-28
2022/05/14 02:07:06;;;;;;;19.25;3.72;;;;;;;11.85;100.00;102011.13;5072027;28;20049;-28
2022/05/14 02:09:34;;;;;;;8.57;2.92;;;;;;;11.85;100.00;102013.06;5071521;28;20451;-29
2022/05/14 02:12:02;;;;;;;10.55;2.92;;;;;;;11.82;100.00;102022.88;5072331;28;20057;-29
2022/05/14 02:14:34;;;;;;;16.15;3.20;;;;;;;11.79;100.00;102026.22;5089364;28;20527;-27
2022/05/14 02:17:02;;;;;;;21.92;3.58;;;;;;;11.78;100.00;102027.38;5088338;28;20048;-28
2022/05/14 02:19:32;;;;;;;19.20;4.05;;;;;;;11.80;100.00;102021.47;5085339;28;20103;-29
2022/05/14 02:22:03;;;;;;;12.35;3.17;;;;;;;11.80;100.00;102030.69;5071493;28;20478;-28
2022/05/14 02:24:31;;;;;;;10.85;2.80;;;;;;;11.79;100.00;102020.63;5088858;28;20061;-32
2022/05/14 02:26:59;;;;;;;18.10;3.42;;;;;;;11.76;100.00;102015.63;5071990;28;20045;-28
2022/05/14 02:29:27;;;;;;;16.45;3.70;;;;;;;11.74;100.00;102018.66;5072327;28;20482;-31
2022/05/14 02:31:55;;;;;;;11.73;3.25;;;;;;;11.72;100.00;102018.09;5071688;28;20048;-30
2022/05/14 02:34:23;;;;;;;12.57;3.00;;;;;;;11.71;100.00;102021.16;5071850;28;20071;-28
2022/05/14 02:36:52;;;;;;;14.15;3.67;;;;;;;11.69;100.00;102031.78;5070977;28;20042;-29
2022/05/14 02:39:19;;;;;;;11.10;2.40;;;;;;;11.65;100.00;102031.50;5072913;28;20120;-28
2022/05/14 02:41:47;;;;;;;10.25;2.75;;;;;;;11.62;100.00;102037.63;5072958;28;20049;-30
2022/05/14 02:44:16;;;;;;;10.98;2.72;;;;;;;11.60;100.00;102036.22;5070825;28;20049;-28
2022/05/14 02:46:43;;;;;;;12.25;2.67;;;;;;;11.57;100.00;102028.44;5072779;28;20079;-28
2022/05/14 02:49:11;;;;;;;13.20;2.78;;;;;;;11.55;100.00;102025.06;5071596;28;20515;-28
2022/05/14 02:51:39;;;;;;;10.43;2.97;;;;;;;11.53;100.00;102025.34;5059937;28;20044;-28
2022/05/14 02:54:08;;;;;;;10.80;2.72;;;;;;;11.51;100.00;102032.31;5072980;28;20073;-28
2022/05/14 02:56:37;;;;;;;9.65;2.22;;;;;;;11.48;100.00;102032.88;5071464;28;20057;-31
2022/05/14 02:59:08;;;;;;;8.77;2.33;;;;;;;11.45;100.00;102031.47;5066695;28;20530;-30
2022/05/14 03:01:47;;;;;;;10.32;2.63;;;;;;;11.44;100.00;102040.13;5071680;28;20106;-28
2022/05/14 03:04:22;;;;;;;17.02;3.28;;;;;;;11.40;100.00;102035.06;5068794;28;20049;-29
2022/05/14 03:06:50;;;;;;;7.55;2.08;;;;;;;11.39;100.00;102032.56;5072566;28;20053;-29
2022/05/14 03:09:21;;;;;;;12.82;2.92;;;;;;;11.37;100.00;102035.66;5071475;28;20067;-30
2022/05/14 03:11:49;;;;;;;8.20;2.45;;;;;;;11.35;100.00;102029.50;5071550;28;20048;-28
2022/05/14 03:14:17;;;;;;;6.57;2.30;;;;;;;11.34;100.00;102025.03;5071421;28;20071;-28
2022/05/14 03:16:45;;;;;;;8.20;2.47;;;;;;;11.33;100.00;102031.72;5070650;28;20054;-29
2022/05/14 03:19:14;;;;;;;6.57;1.85;;;;;;;11.32;100.00;102026.41;5069729;28;20087;-29
2022/05/14 03:21:42;;;;;;;8.88;2.67;;;;;;;11.32;100.00;102032.00;5070178;28;20155;-29
2022/05/14 03:24:11;;;;;;;5.95;1.88;;;;;;;11.31;100.00;102031.16;5069980;28;20048;-30
2022/05/14 03:26:42;;;;;;;10.20;2.35;;;;;;;11.31;100.00;102030.31;5070284;28;20036;-30
2022/05/14 03:29:10;;;;;;;12.68;3.13;;;;;;;11.28;100.00;102028.91;5069891;28;20191;-34
2022/05/14 03:31:41;;;;;;;10.02;2.20;;;;;;;11.26;100.00;102028.34;5071183;28;20052;-31
2022/05/14 03:34:10;;;;;;;7.13;2.05;;;;;;;11.24;100.00;102024.97;5070356;28;20048;-30
2022/05/14 03:36:39;;;;;;;8.60;2.40;;;;;;;11.21;100.00;102017.16;5087452;28;20090;-29
2022/05/14 03:39:07;;;;;;;8.25;2.00;;;;;;;11.19;100.00;102024.16;5071636;28;20048;-29
2022/05/14 03:41:36;;;;;;;8.73;2.47;;;;;;;11.16;100.00;102022.75;5070825;28;20036;-28
2022/05/14 03:44:06;;;;;;;8.50;2.20;;;;;;;11.14;100.00;102029.72;5070210;28;20056;-29
2022/05/14 03:46:34;;;;;;;7.53;2.00;;;;;;;11.11;100.00;102033.91;5086238;28;20049;-28
2022/05/14 03:49:02;;;;;;;6.22;1.92;;;;;;;11.10;100.00;102034.16;5071479;28;20261;-30
2022/05/14 03:51:31;;;;;;;9.55;2.50;;;;;;;11.08;100.00;102033.59;5071562;28;20048;-30
2022/05/14 03:53:59;;;;;;;5.97;1.83;;;;;;;11.05;100.00;102038.63;5069540;28;20126;-29
2022/05/14 03:56:28;;;;;;;6.13;1.70;;;;;;;11.03;100.00;102035.25;5060476;28;20059;-30
2022/05/14 03:58:56;;;;;;;6.68;1.60;;;;;;;11.02;100.00;102032.72;5070189;28;20139;-28
2022/05/14 04:01:25;;;;;;;4.60;1.65;;;;;;;11.00;100.00;102034.94;5069375;28;20044;-28
2022/05/14 04:03:52;;;;;;;8.75;2.00;;;;;;;10.98;100.00;102045.59;5071263;28;20052;-28
2022/05/14 04:06:21;;;;;;;7.70;2.22;;;;;;;10.96;100.00;102050.59;5070146;28;20072;-29
2022/05/14 04:08:48;;;;;;;7.20;1.90;;;;;;;10.94;100.00;102033.28;5070571;28;20040;-30
2022/05/14 04:11:16;;;;;;;6.88;2.13;;;;;;;10.93;100.00;102037.19;5069663;28;20135;-28
2022/05/14 04:13:44;;;;;;;6.95;1.92;;;;;;;10.95;100.00;102052.56;5071289;28;20052;-32
2022/05/14 04:16:12;;;;;;;6.88;2.15;;;;;;;10.94;100.00;102055.63;5070200;28;20067;-29
2022/05/14 04:18:41;;;;;;;4.68;1.55;;;;;;;10.93;100.00;102051.16;5070036;28;20068;-28
2022/05/14 04:21:10;;;;;;;4.95;1.80;;;;;;;10.92;100.00;102049.47;5069774;28;20094;-28
2022/05/14 04:23:38;;;;;;;5.03;1.80;;;;;;;10.89;100.00;102047.22;5069141;28;20052;-29
2022/05/14 04:26:06;;;;;;;5.32;1.70;;;;;;;10.87;100.00;102050.28;5064112;28;20060;-28
2022/05/14 04:28:34;;;;;;;5.85;1.77;;;;;;;10.88;100.00;102054.75;5070149;28;20045;-29
2022/05/14 04:31:02;;;;;;;12.00;2.70;;;;;;;10.90;100.00;102052.53;5069928;28;20048;-28
2022/05/14 04:33:30;;;;;;;9.40;2.60;;;;;;;10.93;100.00;102056.72;5069722;28;20452;-28
2022/05/14 04:35:59;;;;;;;10.68;2.80;;;;;;;10.97;100.00;102063.47;5070525;28;20113;-28
2022/05/14 04:38:27;;;;;;;7.18;2.15;;;;;;;10.98;100.00;102070.72;5069546;28;20051;-29
2022/05/14 04:40:56;;;;;;;7.07;1.80;;;;;;;10.99;100.00;102058.44;5069620;28;20066;-28
2022/05/14 04:43:24;;;;;;;5.68;1.83;;;;;;;11.00;100.00;102057.28;5068702;28;20585;-27
2022/05/14 04:45:52;;;;;;;5.47;1.83;;;;;;;11.02;100.00;102064.28;5071057;28;20054;-29
2022/05/14 04:48:20;;;;;;;7.50;2.10;;;;;;;11.05;100.00;102063.75;5069493;28;20442;-28
2022/05/14 04:50:48;;;;;;;4.88;1.83;;;;;;;11.11;100.00;102069.38;5085622;28;20102;-28
2022/05/14 04:53:17;;;;;;;9.27;2.13;;;;;;;11.15;100.00;102064.94;5069395;28;20541;-29
2022/05/14 04:55:47;;;;;;;10.25;2.60;;;;;;;11.17;100.00;102077.50;5058315;28;20052;-29
2022/05/14 04:58:15;;;;;;;7.25;2.05;;;;;;;11.20;100.00;102078.88;5070221;28;20464;-29
2022/05/14 05:00:47;;;;;;;9.35;2.20;;;;;;;11.25;100.00;102076.13;5069576;28;20565;-27
2022/05/14 05:03:16;;;;;;;14.15;3.10;;;;;;;11.31;100.00;102078.66;5065595;28;20434;-27
2022/05/14 05:05:45;;;;;;;9.85;2.60;;;;;;;11.36;100.00;102078.69;5068485;28;20097;-28
2022/05/14 05:08:14;;;;;;;7.63;2.28;;;;;;;11.42;100.00;102087.91;5068342;28;20045;-28
2022/05/14 05:10:44;;;;;;;6.97;2.30;;;;;;;11.47;100.00;102078.69;5067795;28;20151;-27
2022/05/14 05:13:14;;;;;;;8.90;2.30;;;;;;;11.55;100.00;102100.53;5070344;28;20494;-28
2022/05/14 05:15:42;;;;;;;12.57;2.78;;;;;;;11.61;100.00;102091.03;5070046;28;20059;-27
2022/05/14 05:18:11;;;;;;;8.18;2.17;;;;;;;11.68;100.00;102094.41;5069545;28;20406;-29
2022/05/14 05:20:41;;;;;;;10.00;2.53;;;;;;;11.74;100.00;102096.13;5070359;28;20494;-34
2022/05/14 05:23:12;;;;;;;7.82;2.20;;;;;;;11.80;100.00;102097.81;5074294;28;20058;-33
2022/05/14 05:25:40;;;;;;;9.75;3.00;;;;;;;11.87;100.00;102098.38;5073037;28;20110;-32
2022/05/14 05:28:09;;;;;;;8.98;2.55;;;;;;;11.95;100.00;102100.66;5068179;28;20041;-27
2022/05/14 05:30:37;;;;;;;11.48;2.80;;;;;;;12.03;100.00;102114.06;5074045;28;20511;-28
2022/05/14 05:33:05;;;;;;;9.57;2.60;;;;;;;12.12;100.00;102107.94;5073520;28;20056;-29
2022/05/14 05:35:33;;;;;;;10.68;2.55;;;;;;;12.19;100.00;102112.09;5073912;28;20053;-27
2022/05/14 05:38:01;;;;;;;8.25;2.25;;;;;;;12.28;100.00;102113.25;5074079;28;20036;-28
2022/05/14 05:40:28;;;;;;;7.43;2.33;;;;;;;12.37;100.00;102113.53;5072886;28;20185;-29
2022/05/14 05:42:56;;;;;;;9.48;2.45;;;;;;;12.45;100.00;102121.34;5074048;28;20048;-31
2022/05/14 05:45:26;;;;;;;12.90;3.17;;;;;;;12.54;100.00;102127.22;5073701;28;20292;-30
2022/05/14 05:47:54;;;;;;;13.75;2.85;;;;;;;12.62;100.00;102130.28;5073059;28;20133;-28
2022/05/14 05:50:21;;;;;;;8.48;2.63;;;;;;;12.69;100.00;102130.00;5073999;28;20390;-30
2022/05/14 05:52:51;;;;;;;8.38;2.20;;;;;;;12.75;100.00;102132.53;5073900;28;20047;-28
2022/05/14 05:58:04;;;;;;;9.50;2.53;;;;;;;12.81;100.00;102132.50;5065022;28;20044;-29
2022/05/14 06:00:34;;;;;;;12.70;2.63;;;;;;;12.84;100.00;102138.38;5071337;28;20048;-28
2022/05/14 06:03:01;;;;;;;15.02;3.42;;;;;;;12.88;100.00;102150.69;5063088;28;20054;-28
2022/05/14 06:05:31;;;;;;;10.18;2.80;;;;;;;12.95;100.00;102150.41;5073245;28;20135;-29
2022/05/14 06:07:59;;;;;;;9.43;2.70;;;;;;;13.00;100.00;102145.63;5072881;28;20052;-30
2022/05/14 06:10:28;;;;;;;10.15;2.63;;;;;;;13.08;100.00;102150.66;5072156;28;20059;-28
2022/05/14 06:12:58;;;;;;;9.07;2.70;;;;;;;13.18;100.00;102149.84;5070216;28;20036;-27
2022/05/14 06:15:26;;;;;;;6.15;2.30;;;;;;;13.29;100.00;102151.47;5072968;28;20075;-28
2022/05/14 06:18:01;;;;;;;9.50;2.53;;;;;;;13.41;100.00;102149.16;5070043;28;20044;-28
2022/05/14 06:20:29;;;;;;;8.70;2.40;;;;;;;13.53;100.00;102153.59;5072342;28;20056;-29
2022/05/14 06:23:01;;;;;;;;;;;;;;;13.62;100.00;102149.06;5072364;28;20036;-28
2022/05/14 06:25:29;;;;;;;9.45;2.22;;;;;;;13.78;100.00;102156.28;5067653;28;19924;-28
2022/05/14 06:27:56;;;;;;;7.45;2.50;;;;;;;14.08;100.00;102160.84;5070510;28;20527;-29
2022/05/14 06:30:24;;;;;;;7.60;2.72;;;;;;;14.46;100.00;102159.19;5070790;28;20069;-28
2022/05/14 06:32:52;;;;;;;10.23;2.72;;;;;;;14.92;100.00;102167.22;5069840;28;20106;-29
2022/05/14 06:35:21;;;;;;;9.73;2.90;;;;;;;15.47;100.00;102169.38;5071220;28;20506;-29
2022/05/14 06:37:49;;;;;;;11.38;2.70;;;;;;;16.06;100.00;102172.81;5071378;28;20059;-29
2022/05/14 06:40:17;;;;;;;9.10;2.33;;;;;;;16.61;100.00;102170.25;5069486;28;20388;-31
2022/05/14 06:42:45;;;;;;;10.05;2.65;;;;;;;17.17;100.00;102173.78;5071085;28;20052;-29
2022/05/14 06:45:12;;;;;;;10.07;2.50;;;;;;;17.73;100.00;102181.09;5071385;28;20040;-29
2022/05/14 06:47:41;;;;;;;12.63;3.13;;;;;;;18.36;100.00;102188.69;5071654;28;20439;-30
2022/05/14 06:50:09;;;;;;;13.43;3.03;;;;;;;18.96;100.00;102187.50;5070200;28;20135;-31
2022/05/14 06:52:40;;;;;;;9.05;2.60;;;;;;;19.54;100.00;102179.66;5070837;28;20052;-30
2022/05/14 06:55:11;;;;;;;8.35;2.63;;;;;;;20.08;100.00;102188.75;5071534;28;20039;-30
2022/05/14 06:57:41;;;;;;;8.82;3.10;;;;;;;20.66;98.35;102187.47;5071073;28;20098;-30
2022/05/14 07:00:10;;;;;;;11.73;2.97;;;;;;;21.24;93.37;102197.38;5071677;28;20467;-29
2022/05/14 07:02:38;;;;;;;8.68;2.28;;;;;;;21.61;89.88;102193.69;5070726;28;20044;-30
2022/05/14 07:07:53;;;;;;;9.13;2.75;;;;;;;22.59;82.35;102185.81;5060463;28;20513;-29
2022/05/14 07:10:21;;;;;;;11.13;2.85;;;;;;;22.94;79.78;102192.91;5069307;28;20063;-30
2022/05/14 07:12:49;;;;;;;8.38;2.60;;;;;;;23.41;75.73;102201.03;5070742;28;20044;-32
2022/05/14 07:15:17;;;;;;;7.35;2.35;;;;;;;23.78;74.07;102201.91;5069384;28;20070;-32
2022/05/14 07:17:45;;;;;;;8.38;2.50;;;;;;;24.18;71.05;102187.72;5068523;28;20482;-38
2022/05/14 07:20:12;;;;;;;9.63;2.45;;;;;;;24.52;67.85;102197.78;5071305;28;20047;-39
2022/05/14 07:22:40;;;;;;;9.23;2.50;;;;;;;24.80;66.06;102212.06;5071804;28;20052;-34
2022/05/14 07:25:10;;;;;;;8.60;2.40;;;;;;;25.12;62.33;102206.47;5070276;28;20525;-33
2022/05/14 07:27:40;;;;;;;7.55;2.47;;;;;;;25.43;61.66;102203.63;5071932;28;20528;-36
2022/05/14 07:30:09;;;;;;;10.90;2.95;;;;;;;25.72;58.74;102197.47;5071206;28;20051;-31
2022/05/14 07:32:37;;;;;;;8.77;2.50;;;;;;;26.03;57.45;102208.03;5070837;28;20071;-34
2022/05/14 07:35:06;;;;;;;8.15;2.13;;;;;;;26.23;55.48;102219.50;5071891;28;20499;-34
2022/05/14 07:37:40;;;;;;;10.68;2.70;;;;;;;26.45;54.25;102213.09;5071668;28;20055;-32
2022/05/14 07:40:15;;;;;;;8.43;2.28;;;;;;;26.70;52.36;102197.28;5070946;28;20057;-31
2022/05/14 07:42:47;;;;;;;12.73;2.92;;;;;;;26.82;50.73;102193.44;5066519;28;20049;-34
2022/05/14 07:45:22;;;;;;;9.52;2.90;;;;;;;27.02;49.52;102200.81;5071387;28;20417;-34
2022/05/14 07:47:51;;;;;;;7.43;2.30;;;;;;;27.26;49.97;102211.09;5065484;28;20406;-30
2022/05/14 07:50:19;;;;;;;9.68;2.55;;;;;;;27.55;48.75;102209.59;5071471;28;20044;-31
2022/05/14 07:52:47;;;;;;;8.77;2.40;;;;;;;27.76;48.44;102210.00;5070241;28;20052;-28
2022/05/14 07:55:16;;;;;;;7.18;2.42;;;;;;;27.99;46.70;102206.22;5071640;28;20048;-31
2022/05/14 07:57:44;;;;;;;7.43;2.25;;;;;;;28.25;45.80;102211.16;5071670;28;20119;-30
2022/05/14 08:00:13;;;;;;;8.93;2.83;;;;;;;28.22;46.37;102207.03;5070461;28;20375;-30
2022/05/14 08:02:44;;;;;;;10.70;2.63;;;;;;;28.09;46.27;102211.31;5071207;28;20055;-37
2022/05/14 08:05:13;;;;;;;6.43;2.42;;;;;;;28.00;45.90;102216.50;5070918;28;20143;-31
2022/05/14 08:07:42;;;;;;;10.05;2.80;;;;;;;27.98;45.92;102216.88;5069154;28;20048;-40
2022/05/14 08:10:11;;;;;;;10.30;2.50;;;;;;;28.16;44.76;102207.72;5071215;28;20033;-31
2022/05/14 08:12:42;;;;;;;10.73;2.70;;;;;;;28.31;44.13;102206.75;5070701;28;20076;-30
2022/05/14 08:15:12;;;;;;;8.75;2.45;;;;;;;28.43;43.60;102206.50;5070161;28;20048;-31
2022/05/14 08:17:40;;;;;;;9.75;3.10;;;;;;;28.69;43.13;102211.38;5070947;28;20476;-31
2022/05/14 08:20:10;;;;;;;9.02;2.58;;;;;;;28.96;42.06;102212.13;5071040;28;20040;-30
2022/05/14 08:25:23;;;;;;;10.40;2.72;;;;;;;29.32;41.24;102211.31;5070892;28;20090;-34
2022/05/14 08:27:52;;;;;;;8.05;2.58;;;;;;;29.53;40.60;102207.00;5070239;28;20037;-33
2022/05/14 08:30:23;;;;;;;10.20;2.67;;;;;;;29.64;40.26;102208.75;5070824;28;20044;-30
2022/05/14 08:32:52;;;;;;;10.00;2.55;;;;;;;29.61;40.51;102212.41;5066104;28;20048;-33
2022/05/14 08:35:20;;;;;;;8.68;2.35;;;;;;;29.51;40.64;102218.91;5065089;28;20469;-31
2022/05/14 08:37:50;;;;;;;9.63;2.40;;;;;;;29.46;40.13;102214.34;5069346;28;20052;-30
2022/05/14 08:40:21;;;;;;;11.25;2.55;;;;;;;29.39;40.23;102213.41;5068528;28;20051;-34
2022/05/14 08:42:59;;;;;;;9.45;2.55;;;;;;;29.26;40.04;102215.75;5065795;28;20114;-30
2022/05/14 08:45:29;;;;;;;7.28;2.40;;;;;;;29.33;40.70;102223.63;5068704;28;20568;-37
2022/05/14 08:47:59;;;;;;;10.63;3.15;;;;;;;29.59;40.08;102222.66;5068613;28;20059;-31
2022/05/14 08:50:30;;;;;;;8.30;2.40;;;;;;;29.80;39.99;102226.53;5069971;28;20076;-31
2022/05/14 08:53:05;;;;;;;10.85;2.75;;;;;;;29.89;38.92;102219.63;5070508;28;20463;-30
2022/05/14 08:55:40;;;;;;;8.98;2.90;;;;;;;30.01;38.43;102225.91;5071373;28;20045;-33
2022/05/14 08:58:15;;;;;;;8.82;2.60;;;;;;;30.10;38.79;102231.34;5074615;28;20071;-30
2022/05/14 09:00:43;;;;;;;8.55;2.42;;;;;;;30.05;38.53;102240.34;5074980;28;20389;-32
2022/05/14 09:03:11;;;;;;;10.00;2.78;;;;;;;29.64;39.02;102230.94;5073834;28;20513;-31
2022/05/14 09:05:39;;;;;;;10.70;3.10;;;;;;;29.24;39.27;102237.50;5074769;28;20056;-36
2022/05/14 09:08:07;;;;;;;6.43;2.17;;;;;;;29.12;39.59;102238.59;5074592;28;20052;-35
2022/05/14 09:10:38;;;;;;;7.97;2.80;;;;;;;29.21;38.88;102241.16;5073902;28;20048;-30
2022/05/14 09:13:15;;;;;;;8.18;2.40;;;;;;;29.52;38.37;102239.88;5074770;28;20465;-35
2022/05/14 09:15:48;;;;;;;11.38;2.85;;;;;;;29.74;38.66;102242.53;5069104;28;20052;-39
2022/05/14 09:18:22;;;;;;;9.10;3.05;;;;;;;30.08;37.73;102239.53;5073624;28;20123;-32
2022/05/14 09:20:54;;;;;;;21.77;3.72;;;;;;;30.24;37.04;102240.06;5074480;28;20044;-31
2022/05/14 09:23:25;;;;;;;;;;;;;;;30.20;36.43;102241.25;5074891;28;20044;-36
2022/05/14 09:25:53;;;;;;;7.78;2.50;;;;;;;30.23;38.13;102241.28;5073427;28;19920;-37
2022/05/14 09:28:37;;;;;;;9.07;2.58;;;;;;;30.31;37.09;102243.00;5074251;28;20478;-32
2022/05/14 09:31:04;;;;;;;7.97;3.08;;;;;;;30.31;37.88;102245.06;5073350;28;20049;-33
2022/05/14 09:33:38;;;;;;;8.93;2.80;;;;;;;30.49;37.19;102252.56;5074284;28;20099;-34
2022/05/14 09:36:29;;;;;;;9.23;2.95;;;;;;;30.70;36.63;102268.34;5067255;28;20105;-31
2022/05/14 09:39:02;;;;;;;8.17;2.30;;;;;;;30.81;36.50;102260.56;5073314;28;20052;-40
2022/05/14 09:41:41;;;;;;;10.20;2.60;;;;;;;30.91;35.78;102254.03;5074288;28;20752;-26
2022/05/14 09:44:16;;;;;;;10.43;3.28;;;;;;;30.75;35.80;102262.22;5074398;28;20507;-29
2022/05/14 09:46:43;;;;;;;14.73;3.92;;;;;;;30.22;35.13;102247.44;5073308;28;20063;-30
2022/05/14 09:49:21;;;;;;;10.23;3.70;;;;;;;29.85;35.23;102250.44;5073639;28;20515;-28
2022/05/14 09:51:54;;;;;;;10.30;3.25;;;;;;;29.76;36.18;102259.41;5073585;28;20041;-31
2022/05/14 09:54:25;;;;;;;9.55;3.00;;;;;;;29.85;35.94;102264.81;5073102;28;20048;-28
2022/05/14 09:57:14;;;;;;;10.45;2.85;;;;;;;29.87;34.97;102263.19;5073860;28;20055;-30
2022/05/14 09:59:58;;;;;;;10.48;3.42;;;;;;;29.67;36.21;102268.38;5072499;28;20048;-27
2022/05/14 10:02:36;;;;;;;12.45;3.80;;;;;;;29.51;37.12;102264.94;5069387;28;20048;-29
2022/05/14 10:05:12;;;;;;;14.13;3.47;;;;;;;29.21;35.72;102269.91;5070148;28;20052;-31
2022/05/14 10:07:45;;;;;;;11.48;3.40;;;;;;;28.88;36.56;102274.44;5068560;28;20049;-33
2022/05/14 10:10:27;;;;;;;10.43;3.55;;;;;;;28.29;37.17;102273.19;5069359;28;20406;-28
2022/05/14 10:13:05;;;;;;;13.40;3.35;;;;;;;27.76;37.91;102272.28;5072645;28;20351;-30
2022/05/14 10:15:44;;;;;;;11.65;3.17;;;;;;;27.45;39.44;102270.44;5072136;28;20075;-26
2022/05/14 10:18:34;;;;;;;12.18;3.45;;;;;;;27.42;39.50;102274.06;5072972;28;20063;-34
2022/05/14 10:21:08;;;;;;;10.77;3.63;;;;;;;27.40;39.84;102271.56;5072699;28;20045;-28
2022/05/14 10:27:06;;;;;;;9.80;2.85;;;;;;;27.87;39.36;102266.72;5049311;28;20052;-27
2022/05/14 10:29:53;;;;;;;7.38;2.95;;;;;;;27.97;38.92;102268.94;5059155;28;20055;-28
2022/05/14 10:32:32;;;;;;;10.45;3.35;;;;;;;28.21;38.56;102265.66;5073445;28;20474;-28
2022/05/14 10:35:07;;;;;;;13.45;3.80;;;;;;;28.44;37.79;102266.41;5072295;28;20055;-28
2022/05/14 10:37:44;;;;;;;9.93;2.65;;;;;;;28.48;38.00;102268.53;5072806;28;20502;-28
2022/05/14 10:40:20;;;;;;;8.65;2.80;;;;;;;28.61;37.58;102269.94;5073081;28;20056;-31
2022/05/14 10:43:00;;;;;;;10.05;3.00;;;;;;;28.72;37.51;102268.03;5070688;28;20136;-27
2022/05/14 10:45:33;;;;;;;9.90;3.00;;;;;;;28.76;37.14;102274.69;5073339;28;20045;-26
2022/05/14 10:48:15;;;;;;;10.50;3.65;;;;;;;28.70;36.95;102279.09;5072839;28;20040;-26
2022/05/14 10:50:43;;;;;;;12.50;3.60;;;;;;;28.45;37.36;102273.81;5071379;28;20045;-32
2022/05/14 10:53:13;;;;;;;9.82;3.25;;;;;;;28.38;37.99;102276.56;5069624;28;20153;-26
2022/05/14 10:55:49;;;;;;;10.77;3.13;;;;;;;28.58;37.58;102270.72;5072097;28;20055;-26
2022/05/14 10:58:35;;;;;;;9.75;3.08;;;;;;;28.69;37.61;102275.41;5072735;28;20524;-32
2022/05/14 11:01:08;;;;;;;7.25;2.53;;;;;;;28.75;37.56;102278.75;5070563;28;20040;-27
2022/05/14 11:03:40;;;;;;;9.23;2.97;;;;;;;28.70;37.33;102279.09;5072444;28;20045;-33
2022/05/14 11:06:12;;;;;;;9.07;2.85;;;;;;;28.71;37.63;102272.97;5072273;28;20413;-27
2022/05/14 11:08:42;;;;;;;9.90;2.88;;;;;;;28.79;37.51;102279.63;5069570;28;20076;-30
2022/05/14 11:11:15;;;;;;;9.68;2.80;;;;;;;28.54;37.61;102284.22;5069801;28;20063;-27
2022/05/14 11:13:57;;;;;;;8.45;2.97;;;;;;;28.31;38.24;102270.75;5071674;28;20048;-30
2022/05/14 11:16:37;;;;;;;11.52;3.30;;;;;;;28.06;36.84;102267.44;5071926;28;20056;-29
2022/05/14 11:19:07;;;;;;;8.13;2.33;;;;;;;27.79;39.23;102272.31;5068286;28;20037;-27
2022/05/14 11:21:38;;;;;;;8.05;2.55;;;;;;;27.67;39.46;102275.38;5070773;28;20459;-32
2022/05/14 11:24:11;;;;;;;7.63;2.40;;;;;;;27.92;39.19;102275.00;5069422;28;20047;-27
2022/05/14 11:26:49;;;;;;;10.80;3.08;;;;;;;27.98;37.32;102280.00;5070383;28;20040;-28
2022/05/14 11:29:21;;;;;;;9.52;2.60;;;;;;;27.42;39.23;102271.19;5071568;28;20045;-32
2022/05/14 11:31:53;;;;;;;7.70;2.78;;;;;;;27.36;40.38;102269.88;5071930;28;20397;-27
2022/05/14 11:34:25;;;;;;;8.23;2.38;;;;;;;27.26;40.00;102273.34;4146557;28;10000784;-28
2022/05/14 11:36:56;;;;;;;8.30;2.90;;;;;;;26.92;40.70;102283.69;4148694;28;10000961;-31
2022/05/14 11:39:28;;;;;;;7.95;2.72;;;;;;;26.50;41.70;102278.66;5080511;28;20051;-26
2022/05/14 11:42:12;;;;;;;8.05;2.28;;;;;;;26.70;41.59;102279.53;5060154;28;20056;-26
2022/05/14 11:44:47;;;;;;;8.52;2.67;;;;;;;27.09;41.04;102280.38;5069869;28;20056;-31
2022/05/14 11:47:57;;;;;;;9.70;2.70;;;;;;;27.63;39.31;102276.53;5060231;28;20044;-28
2022/05/14 11:50:33;;;;;;;13.47;4.20;;;;;;;27.34;39.62;102280.88;5039752;28;20056;-35